sensor_id;sensor_type;location;lat;lon;timestamp;P1;durP1;ratioP1;P2;durP2;ratioP2
21671;SDS011;10997;52.242;8.168;2023-08-08T00:01:20;9.38;;;4.97;;
21671;SDS011;10997;52.242;8.168;2023-08-08T00:06:21;11.13;;;4.60;;
21671;SDS011;10997;52.242;8.168;2023-08-08T00:11:23;10.57;;;4.22;;
21671;SDS011;10997;52.242;8.168;2023-08-08T00:16:24;8.15;;;4.60;;
21671;SDS011;10997;52.242;8.168;2023-08-08T00:21:24;7.90;;;4.70;;
21671;SDS011;10997;52.242;8.168;2023-08-08T00:26:25;10.73;;;4.78;;
21671;SDS011;10997;52.242;8.168;2023-08-08T00:31:25;7.28;;;4.43;;
21671;SDS011;10997;52.242;8.168;2023-08-08T00:36:26;7.35;;;4.93;;
21671;SDS011;10997;52.242;8.168;2023-08-08T00:41:27;7.90;;;5.30;;
21671;SDS011;10997;52.242;8.168;2023-08-08T00:46:27;10.70;;;5.25;;
21671;SDS011;10997;52.242;8.168;2023-08-08T00:51:28;13.38;;;6.05;;
21671;SDS011;10997;52.242;8.168;2023-08-08T00:56:29;10.27;;;5.47;;
21671;SDS011;10997;52.242;8.168;2023-08-08T01:01:30;9.55;;;5.82;;
21671;SDS011;10997;52.242;8.168;2023-08-08T01:11:42;11.10;;;5.80;;
21671;SDS011;10997;52.242;8.168;2023-08-08T01:16:44;9.82;;;5.55;;
21671;SDS011;10997;52.242;8.168;2023-08-08T01:21:44;9.82;;;5.40;;
21671;SDS011;10997;52.242;8.168;2023-08-08T01:26:48;9.25;;;5.40;;
21671;SDS011;10997;52.242;8.168;2023-08-08T01:31:50;7.55;;;5.05;;
21671;SDS011;10997;52.242;8.168;2023-08-08T01:41:59;11.25;;;4.90;;
21671;SDS011;10997;52.242;8.168;2023-08-08T01:47:01;8.70;;;5.18;;
21671;SDS011;10997;52.242;8.168;2023-08-08T01:52:02;9.38;;;5.07;;
21671;SDS011;10997;52.242;8.168;2023-08-08T01:57:02;8.52;;;5.45;;
21671;SDS011;10997;52.242;8.168;2023-08-08T02:02:03;9.02;;;4.90;;
21671;SDS011;10997;52.242;8.168;2023-08-08T02:07:04;8.80;;;4.85;;
21671;SDS011;10997;52.242;8.168;2023-08-08T02:12:05;8.13;;;4.40;;
21671;SDS011;10997;52.242;8.168;2023-08-08T02:17:05;7.22;;;4.22;;
21671;SDS011;10997;52.242;8.168;2023-08-08T02:22:06;6.72;;;4.28;;
21671;SDS011;10997;52.242;8.168;2023-08-08T02:27:07;7.45;;;4.15;;
21671;SDS011;10997;52.242;8.168;2023-08-08T02:32:07;6.47;;;4.25;;
21671;SDS011;10997;52.242;8.168;2023-08-08T02:37:08;7.80;;;3.95;;
21671;SDS011;10997;52.242;8.168;2023-08-08T02:42:09;9.00;;;4.18;;
21671;SDS011;10997;52.242;8.168;2023-08-08T02:47:09;8.45;;;4.75;;
21671;SDS011;10997;52.242;8.168;2023-08-08T02:52:10;10.15;;;4.30;;
21671;SDS011;10997;52.242;8.168;2023-08-08T02:57:10;7.57;;;4.47;;
21671;SDS011;10997;52.242;8.168;2023-08-08T03:02:11;9.32;;;5.13;;
21671;SDS011;10997;52.242;8.168;2023-08-08T03:07:12;10.50;;;5.60;;
21671;SDS011;10997;52.242;8.168;2023-08-08T03:12:13;11.52;;;5.95;;
21671;SDS011;10997;52.242;8.168;2023-08-08T03:17:13;12.38;;;6.53;;
21671;SDS011;10997;52.242;8.168;2023-08-08T03:22:14;11.35;;;6.80;;
21671;SDS011;10997;52.242;8.168;2023-08-08T03:27:14;12.35;;;6.93;;
21671;SDS011;10997;52.242;8.168;2023-08-08T03:32:16;13.20;;;7.80;;
21671;SDS011;10997;52.242;8.168;2023-08-08T03:37:17;14.43;;;8.05;;
21671;SDS011;10997;52.242;8.168;2023-08-08T03:42:18;14.60;;;7.53;;
21671;SDS011;10997;52.242;8.168;2023-08-08T03:47:18;12.23;;;7.97;;
21671;SDS011;10997;52.242;8.168;2023-08-08T03:52:19;17.98;;;9.80;;
21671;SDS011;10997;52.242;8.168;2023-08-08T03:57:19;18.35;;;9.98;;
21671;SDS011;10997;52.242;8.168;2023-08-08T04:02:20;15.95;;;10.35;;
21671;SDS011;10997;52.242;8.168;2023-08-08T04:07:21;17.90;;;10.55;;
21671;SDS011;10997;52.242;8.168;2023-08-08T04:12:21;11.48;;;8.38;;
21671;SDS011;10997;52.242;8.168;2023-08-08T04:17:22;13.18;;;7.93;;
21671;SDS011;10997;52.242;8.168;2023-08-08T04:22:22;14.75;;;8.52;;
21671;SDS011;10997;52.242;8.168;2023-08-08T04:27:23;17.35;;;10.45;;
21671;SDS011;10997;52.242;8.168;2023-08-08T04:32:24;19.10;;;12.20;;
21671;SDS011;10997;52.242;8.168;2023-08-08T04:37:24;18.38;;;11.48;;
21671;SDS011;10997;52.242;8.168;2023-08-08T04:42:25;23.10;;;12.07;;
21671;SDS011;10997;52.242;8.168;2023-08-08T04:47:26;16.05;;;11.07;;
21671;SDS011;10997;52.242;8.168;2023-08-08T04:52:26;15.20;;;10.43;;
21671;SDS011;10997;52.242;8.168;2023-08-08T04:57:27;16.17;;;10.25;;
21671;SDS011;10997;52.242;8.168;2023-08-08T05:02:27;19.08;;;9.55;;
21671;SDS011;10997;52.242;8.168;2023-08-08T05:07:34;15.90;;;9.50;;
21671;SDS011;10997;52.242;8.168;2023-08-08T05:12:37;15.52;;;9.43;;
21671;SDS011;10997;52.242;8.168;2023-08-08T05:17:38;18.73;;;8.50;;
21671;SDS011;10997;52.242;8.168;2023-08-08T05:22:40;17.40;;;9.48;;
21671;SDS011;10997;52.242;8.168;2023-08-08T05:27:41;19.73;;;9.60;;
21671;SDS011;10997;52.242;8.168;2023-08-08T05:32:42;18.10;;;10.23;;
21671;SDS011;10997;52.242;8.168;2023-08-08T05:37:42;15.27;;;9.45;;
21671;SDS011;10997;52.242;8.168;2023-08-08T05:42:43;15.43;;;9.65;;
21671;SDS011;10997;52.242;8.168;2023-08-08T05:47:43;18.00;;;9.75;;
21671;SDS011;10997;52.242;8.168;2023-08-08T05:52:44;17.42;;;10.13;;
21671;SDS011;10997;52.242;8.168;2023-08-08T05:57:45;16.52;;;9.32;;
21671;SDS011;10997;52.242;8.168;2023-08-08T06:02:45;17.65;;;8.73;;
21671;SDS011;10997;52.242;8.168;2023-08-08T06:07:46;16.55;;;8.63;;
21671;SDS011;10997;52.242;8.168;2023-08-08T06:12:46;14.77;;;7.70;;
21671;SDS011;10997;52.242;8.168;2023-08-08T06:17:47;11.25;;;7.95;;
21671;SDS011;10997;52.242;8.168;2023-08-08T06:22:48;12.90;;;7.45;;
21671;SDS011;10997;52.242;8.168;2023-08-08T06:27:49;13.10;;;7.93;;
21671;SDS011;10997;52.242;8.168;2023-08-08T06:32:49;11.07;;;7.88;;
21671;SDS011;10997;52.242;8.168;2023-08-08T06:37:50;11.30;;;6.50;;
21671;SDS011;10997;52.242;8.168;2023-08-08T06:42:50;12.43;;;6.53;;
21671;SDS011;10997;52.242;8.168;2023-08-08T06:47:51;12.77;;;6.30;;
21671;SDS011;10997;52.242;8.168;2023-08-08T06:52:52;12.63;;;6.18;;
21671;SDS011;10997;52.242;8.168;2023-08-08T06:57:54;16.02;;;6.32;;
21671;SDS011;10997;52.242;8.168;2023-08-08T07:02:54;10.80;;;5.70;;
21671;SDS011;10997;52.242;8.168;2023-08-08T07:07:55;11.45;;;5.70;;
21671;SDS011;10997;52.242;8.168;2023-08-08T07:12:56;8.63;;;5.18;;
21671;SDS011;10997;52.242;8.168;2023-08-08T07:17:56;11.73;;;4.68;;
21671;SDS011;10997;52.242;8.168;2023-08-08T07:22:57;10.23;;;4.80;;
21671;SDS011;10997;52.242;8.168;2023-08-08T07:27:59;10.90;;;4.72;;
21671;SDS011;10997;52.242;8.168;2023-08-08T07:33:00;13.98;;;5.13;;
21671;SDS011;10997;52.242;8.168;2023-08-08T07:38:02;12.63;;;5.50;;
21671;SDS011;10997;52.242;8.168;2023-08-08T07:43:03;9.80;;;5.05;;
21671;SDS011;10997;52.242;8.168;2023-08-08T07:48:04;10.10;;;5.00;;
21671;SDS011;10997;52.242;8.168;2023-08-08T07:53:05;14.18;;;5.47;;
21671;SDS011;10997;52.242;8.168;2023-08-08T07:58:05;11.15;;;5.55;;
21671;SDS011;10997;52.242;8.168;2023-08-08T08:03:06;9.45;;;5.75;;
21671;SDS011;10997;52.242;8.168;2023-08-08T08:08:06;9.60;;;4.72;;
21671;SDS011;10997;52.242;8.168;2023-08-08T08:13:07;11.40;;;4.68;;
21671;SDS011;10997;52.242;8.168;2023-08-08T08:18:08;5.97;;;3.58;;
21671;SDS011;10997;52.242;8.168;2023-08-08T08:23:08;6.30;;;3.00;;
21671;SDS011;10997;52.242;8.168;2023-08-08T08:28:09;9.55;;;2.92;;
21671;SDS011;10997;52.242;8.168;2023-08-08T08:33:09;8.80;;;3.63;;
21671;SDS011;10997;52.242;8.168;2023-08-08T08:38:10;9.65;;;3.20;;
21671;SDS011;10997;52.242;8.168;2023-08-08T08:43:11;8.48;;;3.20;;
21671;SDS011;10997;52.242;8.168;2023-08-08T08:48:12;9.20;;;3.08;;
21671;SDS011;10997;52.242;8.168;2023-08-08T08:53:15;6.82;;;2.58;;
21671;SDS011;10997;52.242;8.168;2023-08-08T08:58:17;8.90;;;2.42;;
21671;SDS011;10997;52.242;8.168;2023-08-08T09:03:18;9.00;;;2.50;;
21671;SDS011;10997;52.242;8.168;2023-08-08T09:08:19;7.35;;;2.20;;
21671;SDS011;10997;52.242;8.168;2023-08-08T09:13:20;5.65;;;2.28;;
21671;SDS011;10997;52.242;8.168;2023-08-08T09:18:23;6.95;;;2.35;;
21671;SDS011;10997;52.242;8.168;2023-08-08T09:23:24;10.15;;;2.33;;
21671;SDS011;10997;52.242;8.168;2023-08-08T09:28:25;8.20;;;2.42;;
21671;SDS011;10997;52.242;8.168;2023-08-08T09:33:29;7.57;;;2.20;;
21671;SDS011;10997;52.242;8.168;2023-08-08T09:38:30;5.50;;;2.03;;
21671;SDS011;10997;52.242;8.168;2023-08-08T09:43:30;5.45;;;2.40;;
21671;SDS011;10997;52.242;8.168;2023-08-08T09:48:34;5.38;;;2.00;;
21671;SDS011;10997;52.242;8.168;2023-08-08T09:53:35;7.85;;;2.90;;
21671;SDS011;10997;52.242;8.168;2023-08-08T09:58:36;6.25;;;1.98;;
21671;SDS011;10997;52.242;8.168;2023-08-08T10:03:36;5.25;;;2.00;;
21671;SDS011;10997;52.242;8.168;2023-08-08T10:08:37;4.97;;;2.00;;
21671;SDS011;10997;52.242;8.168;2023-08-08T10:13:38;4.95;;;1.75;;
21671;SDS011;10997;52.242;8.168;2023-08-08T10:18:52;4.75;;;1.80;;
21671;SDS011;10997;52.242;8.168;2023-08-08T10:24:02;4.93;;;1.70;;
21671;SDS011;10997;52.242;8.168;2023-08-08T10:29:17;4.55;;;1.80;;
21671;SDS011;10997;52.242;8.168;2023-08-08T10:34:19;5.38;;;1.75;;
21671;SDS011;10997;52.242;8.168;2023-08-08T10:39:21;5.20;;;1.77;;
21671;SDS011;10997;52.242;8.168;2023-08-08T10:44:24;3.35;;;1.48;;
21671;SDS011;10997;52.242;8.168;2023-08-08T10:49:25;3.30;;;1.40;;
21671;SDS011;10997;52.242;8.168;2023-08-08T10:54:26;5.00;;;1.95;;
21671;SDS011;10997;52.242;8.168;2023-08-08T10:59:38;3.55;;;1.40;;
21671;SDS011;10997;52.242;8.168;2023-08-08T11:04:39;3.95;;;1.63;;
21671;SDS011;10997;52.242;8.168;2023-08-08T11:09:42;4.38;;;1.20;;
21671;SDS011;10997;52.242;8.168;2023-08-08T11:14:43;6.13;;;1.60;;
21671;SDS011;10997;52.242;8.168;2023-08-08T11:19:43;3.80;;;1.33;;
21671;SDS011;10997;52.242;8.168;2023-08-08T11:24:44;3.92;;;1.27;;
21671;SDS011;10997;52.242;8.168;2023-08-08T11:29:50;7.63;;;1.60;;
21671;SDS011;10997;52.242;8.168;2023-08-08T11:34:51;4.43;;;1.30;;
21671;SDS011;10997;52.242;8.168;2023-08-08T11:39:52;4.50;;;1.42;;
21671;SDS011;10997;52.242;8.168;2023-08-08T11:44:53;3.28;;;1.33;;
21671;SDS011;10997;52.242;8.168;2023-08-08T11:49:54;4.53;;;1.60;;
21671;SDS011;10997;52.242;8.168;2023-08-08T11:54:58;4.50;;;1.30;;
21671;SDS011;10997;52.242;8.168;2023-08-08T12:00:00;3.53;;;1.42;;
21671;SDS011;10997;52.242;8.168;2023-08-08T12:05:13;3.00;;;1.40;;
21671;SDS011;10997;52.242;8.168;2023-08-08T12:10:22;6.43;;;1.50;;
21671;SDS011;10997;52.242;8.168;2023-08-08T12:15:23;2.83;;;1.02;;
21671;SDS011;10997;52.242;8.168;2023-08-08T12:20:26;5.03;;;1.40;;
21671;SDS011;10997;52.242;8.168;2023-08-08T12:25:31;4.18;;;1.10;;
21671;SDS011;10997;52.242;8.168;2023-08-08T12:30:31;3.25;;;1.13;;
21671;SDS011;10997;52.242;8.168;2023-08-08T12:35:32;2.92;;;1.20;;
21671;SDS011;10997;52.242;8.168;2023-08-08T12:40:32;1.95;;;0.80;;
21671;SDS011;10997;52.242;8.168;2023-08-08T12:45:33;2.20;;;0.90;;
21671;SDS011;10997;52.242;8.168;2023-08-08T12:50:34;2.38;;;0.80;;
21671;SDS011;10997;52.242;8.168;2023-08-08T12:55:35;2.20;;;0.90;;
21671;SDS011;10997;52.242;8.168;2023-08-08T13:00:35;2.38;;;0.90;;
21671;SDS011;10997;52.242;8.168;2023-08-08T13:05:36;1.60;;;0.90;;
21671;SDS011;10997;52.242;8.168;2023-08-08T13:10:37;2.33;;;0.95;;
21671;SDS011;10997;52.242;8.168;2023-08-08T13:15:37;1.63;;;0.90;;
21671;SDS011;10997;52.242;8.168;2023-08-08T13:20:38;2.30;;;0.80;;
21671;SDS011;10997;52.242;8.168;2023-08-08T13:25:38;2.63;;;1.00;;
21671;SDS011;10997;52.242;8.168;2023-08-08T13:30:40;3.47;;;1.00;;
21671;SDS011;10997;52.242;8.168;2023-08-08T13:35:43;2.08;;;0.93;;
21671;SDS011;10997;52.242;8.168;2023-08-08T13:40:43;5.65;;;1.08;;
21671;SDS011;10997;52.242;8.168;2023-08-08T13:45:44;1.92;;;1.00;;
21671;SDS011;10997;52.242;8.168;2023-08-08T13:50:44;2.72;;;1.02;;
21671;SDS011;10997;52.242;8.168;2023-08-08T13:55:45;2.28;;;1.02;;
21671;SDS011;10997;52.242;8.168;2023-08-08T14:00:46;1.73;;;1.05;;
21671;SDS011;10997;52.242;8.168;2023-08-08T14:05:47;2.80;;;1.15;;
21671;SDS011;10997;52.242;8.168;2023-08-08T14:10:47;2.60;;;1.10;;
21671;SDS011;10997;52.242;8.168;2023-08-08T14:15:48;1.65;;;1.02;;
21671;SDS011;10997;52.242;8.168;2023-08-08T14:20:49;3.17;;;1.20;;
21671;SDS011;10997;52.242;8.168;2023-08-08T14:25:49;1.27;;;0.90;;
21671;SDS011;10997;52.242;8.168;2023-08-08T14:30:50;2.35;;;1.10;;
21671;SDS011;10997;52.242;8.168;2023-08-08T14:35:50;4.20;;;1.30;;
21671;SDS011;10997;52.242;8.168;2023-08-08T14:40:51;3.38;;;1.30;;
21671;SDS011;10997;52.242;8.168;2023-08-08T14:45:56;3.88;;;1.30;;
21671;SDS011;10997;52.242;8.168;2023-08-08T14:50:59;4.20;;;1.50;;
21671;SDS011;10997;52.242;8.168;2023-08-08T14:56:01;4.65;;;1.60;;
21671;SDS011;10997;52.242;8.168;2023-08-08T15:01:03;3.58;;;1.35;;
21671;SDS011;10997;52.242;8.168;2023-08-08T15:06:03;2.05;;;1.30;;
21671;SDS011;10997;52.242;8.168;2023-08-08T15:11:04;2.72;;;1.20;;
21671;SDS011;10997;52.242;8.168;2023-08-08T15:16:05;2.55;;;1.17;;
21671;SDS011;10997;52.242;8.168;2023-08-08T15:21:06;1.98;;;1.20;;
21671;SDS011;10997;52.242;8.168;2023-08-08T15:26:06;4.20;;;1.30;;
21671;SDS011;10997;52.242;8.168;2023-08-08T15:31:07;2.80;;;1.05;;
21671;SDS011;10997;52.242;8.168;2023-08-08T15:36:08;3.47;;;1.10;;
21671;SDS011;10997;52.242;8.168;2023-08-08T15:41:09;2.78;;;1.00;;
21671;SDS011;10997;52.242;8.168;2023-08-08T15:46:09;3.45;;;1.00;;
21671;SDS011;10997;52.242;8.168;2023-08-08T15:51:10;2.47;;;0.90;;
21671;SDS011;10997;52.242;8.168;2023-08-08T15:56:10;2.00;;;1.05;;
21671;SDS011;10997;52.242;8.168;2023-08-08T16:01:11;4.15;;;1.40;;
21671;SDS011;10997;52.242;8.168;2023-08-08T16:06:12;3.83;;;1.20;;
21671;SDS011;10997;52.242;8.168;2023-08-08T16:11:12;3.70;;;1.10;;
21671;SDS011;10997;52.242;8.168;2023-08-08T16:16:13;4.07;;;1.42;;
21671;SDS011;10997;52.242;8.168;2023-08-08T16:21:13;2.15;;;1.40;;
21671;SDS011;10997;52.242;8.168;2023-08-08T16:26:14;3.38;;;1.40;;
21671;SDS011;10997;52.242;8.168;2023-08-08T16:31:14;2.75;;;1.45;;
21671;SDS011;10997;52.242;8.168;2023-08-08T16:36:15;1.88;;;1.00;;
21671;SDS011;10997;52.242;8.168;2023-08-08T16:41:16;1.67;;;1.00;;
21671;SDS011;10997;52.242;8.168;2023-08-08T16:46:16;2.22;;;1.00;;
21671;SDS011;10997;52.242;8.168;2023-08-08T16:51:17;2.80;;;1.00;;
21671;SDS011;10997;52.242;8.168;2023-08-08T16:56:17;3.42;;;1.20;;
21671;SDS011;10997;52.242;8.168;2023-08-08T17:01:18;2.88;;;1.10;;
21671;SDS011;10997;52.242;8.168;2023-08-08T17:06:19;1.83;;;0.98;;
21671;SDS011;10997;52.242;8.168;2023-08-08T17:11:19;2.15;;;1.10;;
21671;SDS011;10997;52.242;8.168;2023-08-08T17:16:20;2.65;;;1.20;;
21671;SDS011;10997;52.242;8.168;2023-08-08T17:21:21;4.18;;;1.40;;
21671;SDS011;10997;52.242;8.168;2023-08-08T17:26:21;2.45;;;1.20;;
21671;SDS011;10997;52.242;8.168;2023-08-08T17:31:22;4.07;;;1.10;;
21671;SDS011;10997;52.242;8.168;2023-08-08T17:36:22;4.43;;;1.40;;
21671;SDS011;10997;52.242;8.168;2023-08-08T17:41:23;2.92;;;1.13;;
21671;SDS011;10997;52.242;8.168;2023-08-08T17:46:24;3.28;;;1.25;;
21671;SDS011;10997;52.242;8.168;2023-08-08T17:51:24;3.58;;;1.27;;
21671;SDS011;10997;52.242;8.168;2023-08-08T17:56:25;3.10;;;1.10;;
21671;SDS011;10997;52.242;8.168;2023-08-08T18:01:25;3.65;;;1.20;;
21671;SDS011;10997;52.242;8.168;2023-08-08T18:06:28;4.80;;;1.42;;
21671;SDS011;10997;52.242;8.168;2023-08-08T18:11:29;2.50;;;1.23;;
21671;SDS011;10997;52.242;8.168;2023-08-08T18:16:30;3.53;;;1.15;;
21671;SDS011;10997;52.242;8.168;2023-08-08T18:21:31;3.67;;;1.30;;
21671;SDS011;10997;52.242;8.168;2023-08-08T18:26:31;3.50;;;1.25;;
21671;SDS011;10997;52.242;8.168;2023-08-08T18:31:32;6.00;;;1.60;;
21671;SDS011;10997;52.242;8.168;2023-08-08T18:36:33;5.22;;;1.25;;
21671;SDS011;10997;52.242;8.168;2023-08-08T18:41:34;4.32;;;1.40;;
21671;SDS011;10997;52.242;8.168;2023-08-08T18:46:35;3.25;;;1.13;;
21671;SDS011;10997;52.242;8.168;2023-08-08T18:51:37;3.85;;;1.10;;
21671;SDS011;10997;52.242;8.168;2023-08-08T18:56:37;2.28;;;1.33;;
21671;SDS011;10997;52.242;8.168;2023-08-08T19:01:38;3.13;;;1.55;;
21671;SDS011;10997;52.242;8.168;2023-08-08T19:06:39;5.20;;;1.40;;
21671;SDS011;10997;52.242;8.168;2023-08-08T19:11:39;4.28;;;1.50;;
21671;SDS011;10997;52.242;8.168;2023-08-08T19:16:40;2.75;;;1.40;;
21671;SDS011;10997;52.242;8.168;2023-08-08T19:21:41;4.20;;;1.65;;
21671;SDS011;10997;52.242;8.168;2023-08-08T19:26:41;5.53;;;1.88;;
21671;SDS011;10997;52.242;8.168;2023-08-08T19:31:42;3.72;;;1.75;;
21671;SDS011;10997;52.242;8.168;2023-08-08T19:36:42;4.85;;;1.90;;
21671;SDS011;10997;52.242;8.168;2023-08-08T19:41:43;5.38;;;2.10;;
21671;SDS011;10997;52.242;8.168;2023-08-08T19:46:44;5.43;;;2.47;;
21671;SDS011;10997;52.242;8.168;2023-08-08T19:51:44;5.35;;;2.20;;
21671;SDS011;10997;52.242;8.168;2023-08-08T19:56:45;4.82;;;2.10;;
21671;SDS011;10997;52.242;8.168;2023-08-08T20:01:45;5.93;;;2.17;;
21671;SDS011;10997;52.242;8.168;2023-08-08T20:06:46;4.10;;;2.20;;
21671;SDS011;10997;52.242;8.168;2023-08-08T20:11:46;2.55;;;2.00;;
21671;SDS011;10997;52.242;8.168;2023-08-08T20:16:47;3.72;;;2.20;;
21671;SDS011;10997;52.242;8.168;2023-08-08T20:21:48;5.43;;;2.00;;
21671;SDS011;10997;52.242;8.168;2023-08-08T20:26:49;3.97;;;2.33;;
21671;SDS011;10997;52.242;8.168;2023-08-08T20:31:49;4.30;;;2.30;;
21671;SDS011;10997;52.242;8.168;2023-08-08T20:36:50;5.85;;;1.98;;
21671;SDS011;10997;52.242;8.168;2023-08-08T20:41:52;4.22;;;1.95;;
21671;SDS011;10997;52.242;8.168;2023-08-08T20:46:53;4.97;;;2.38;;
21671;SDS011;10997;52.242;8.168;2023-08-08T20:51:54;4.88;;;2.30;;
21671;SDS011;10997;52.242;8.168;2023-08-08T20:56:55;3.30;;;2.47;;
21671;SDS011;10997;52.242;8.168;2023-08-08T21:01:56;3.08;;;2.33;;
21671;SDS011;10997;52.242;8.168;2023-08-08T21:06:57;5.10;;;2.72;;
21671;SDS011;10997;52.242;8.168;2023-08-08T21:11:58;7.10;;;2.92;;
21671;SDS011;10997;52.242;8.168;2023-08-08T21:16:58;3.95;;;2.70;;
21671;SDS011;10997;52.242;8.168;2023-08-08T21:21:59;5.20;;;2.63;;
21671;SDS011;10997;52.242;8.168;2023-08-08T21:27:00;6.93;;;3.10;;
21671;SDS011;10997;52.242;8.168;2023-08-08T21:32:04;6.82;;;3.80;;
21671;SDS011;10997;52.242;8.168;2023-08-08T21:37:04;6.22;;;3.08;;
21671;SDS011;10997;52.242;8.168;2023-08-08T21:42:05;8.52;;;3.92;;
21671;SDS011;10997;52.242;8.168;2023-08-08T21:47:06;8.45;;;3.72;;
21671;SDS011;10997;52.242;8.168;2023-08-08T21:52:06;6.18;;;3.92;;
21671;SDS011;10997;52.242;8.168;2023-08-08T21:57:07;7.68;;;4.07;;
21671;SDS011;10997;52.242;8.168;2023-08-08T22:02:08;6.40;;;4.05;;
21671;SDS011;10997;52.242;8.168;2023-08-08T22:07:08;7.43;;;4.20;;
21671;SDS011;10997;52.242;8.168;2023-08-08T22:12:09;8.27;;;4.15;;
21671;SDS011;10997;52.242;8.168;2023-08-08T22:17:09;5.25;;;3.72;;
21671;SDS011;10997;52.242;8.168;2023-08-08T22:22:10;7.93;;;4.20;;
21671;SDS011;10997;52.242;8.168;2023-08-08T22:27:11;8.70;;;4.32;;
21671;SDS011;10997;52.242;8.168;2023-08-08T22:32:11;7.00;;;4.30;;
21671;SDS011;10997;52.242;8.168;2023-08-08T22:37:12;8.55;;;3.97;;
21671;SDS011;10997;52.242;8.168;2023-08-08T22:42:12;6.68;;;3.60;;
21671;SDS011;10997;52.242;8.168;2023-08-08T22:47:13;5.50;;;3.38;;
21671;SDS011;10997;52.242;8.168;2023-08-08T22:52:13;6.65;;;3.38;;
21671;SDS011;10997;52.242;8.168;2023-08-08T22:57:14;5.65;;;2.90;;
21671;SDS011;10997;52.242;8.168;2023-08-08T23:02:15;5.47;;;3.20;;
21671;SDS011;10997;52.242;8.168;2023-08-08T23:07:15;4.15;;;2.80;;
21671;SDS011;10997;52.242;8.168;2023-08-08T23:12:18;3.78;;;2.80;;
21671;SDS011;10997;52.242;8.168;2023-08-08T23:17:19;4.82;;;2.90;;
21671;SDS011;10997;52.242;8.168;2023-08-08T23:22:19;3.88;;;3.03;;
21671;SDS011;10997;52.242;8.168;2023-08-08T23:27:20;6.53;;;3.10;;
21671;SDS011;10997;52.242;8.168;2023-08-08T23:32:20;5.65;;;2.97;;
21671;SDS011;10997;52.242;8.168;2023-08-08T23:37:21;4.32;;;3.05;;
21671;SDS011;10997;52.242;8.168;2023-08-08T23:42:22;5.43;;;3.40;;
21671;SDS011;10997;52.242;8.168;2023-08-08T23:47:22;6.22;;;3.80;;
21671;SDS011;10997;52.242;8.168;2023-08-08T23:52:23;8.45;;;3.55;;
21671;SDS011;10997;52.242;8.168;2023-08-08T23:57:23;7.78;;;3.90;;
